Time,TemperatureF,DewpointF,PressureIn,WindDirection,WindDirectionDegrees,WindSpeedMPH,WindSpeedGustMPH,Humidity,HourlyPrecipIn,Conditions,Clouds,dailyrainin,SolarRadiationWatts/m^2,SoftwareType,DateUTC
2013-01-29 00:00:00,72.9,72.0,29.78,South,179,1.0,4.0,97,0.00,CLR,,0.02,0.0,WeatherDisplay:10.37,2013-01-28 14:00:00,
2013-01-29 00:05:00,72.7,71.8,29.78,SSW,209,1.0,2.0,97,0.00,CLR,,0.02,0.0,WeatherDisplay:10.37,2013-01-28 14:05:00,
2013-01-29 00:10:00,72.5,71.6,29.78,NW,304,0.0,2.0,97,0.00,CLR,,0.02,0.0,WeatherDisplay:10.37,2013-01-28 14:10:00,
2013-01-29 00:15:00,72.7,71.8,29.78,NNE,12,1.0,2.0,97,0.00,CLR,,0.02,0.0,WeatherDisplay:10.37,2013-01-28 14:15:00,
2013-01-29 00:20:00,72.9,72.0,29.78,North,3,1.0,2.0,97,0.00,CLR,,0.02,0.0,WeatherDisplay:10.37,2013-01-28 14:20:00,
2013-01-29 00:25:00,72.8,71.9,29.78,NW,326,0.0,2.0,97,0.00,CLR,,0.02,0.0,WeatherDisplay:10.37,2013-01-28 14:25:00,
2013-01-29 00:30:00,72.7,71.8,29.78,NW,304,0.0,2.0,97,0.00,CLR,,0.02,0.0,WeatherDisplay:10.37,2013-01-28 14:30:00,
2013-01-29 00:35:00,72.7,71.8,29.79,WNW,285,1.0,2.0,97,0.00,CLR,,0.02,0.0,WeatherDisplay:10.37,2013-01-28 14:35:00,
2013-01-29 00:40:00,72.5,71.6,29.78,West,273,1.0,2.0,97,0.00,CLR,,0.02,0.0,WeatherDisplay:10.37,2013-01-28 14:40:00,
2013-01-29 00:45:00,72.5,71.6,29.78,South,191,0.0,2.0,97,0.00,CLR,,0.02,0.0,WeatherDisplay:10.37,2013-01-28 14:45:00,
2013-01-29 00:50:00,72.7,71.8,29.78,South,169,1.0,2.0,97,0.00,CLR,,0.02,0.0,WeatherDisplay:10.37,2013-01-28 14:50:00,
2013-01-29 00:55:00,72.9,72.0,29.78,SE,141,1.0,2.0,97,0.00,CLR,,0.02,0.0,WeatherDisplay:10.37,2013-01-28 14:55:00,
2013-01-29 01:00:00,73.1,72.2,29.78,SE,131,1.0,3.0,97,0.00,CLR,,0.02,0.0,WeatherDisplay:10.37,2013-01-28 15:00:00,
2013-01-29 01:05:00,73.2,72.3,29.78,SSE,161,1.0,2.0,97,0.00,CLR,,0.02,0.0,WeatherDisplay:10.37,2013-01-28 15:05:00,
2013-01-29 01:10:00,73.0,72.1,29.78,SW,228,0.0,2.0,97,0.00,CLR,,0.02,0.0,WeatherDisplay:10.37,2013-01-28 15:10:00,
2013-01-29 01:15:00,73.0,72.1,29.78,South,171,2.0,3.0,97,0.00,CLR,,0.02,0.0,WeatherDisplay:10.37,2013-01-28 15:15:00,
2013-01-29 01:20:00,73.2,72.3,29.78,SSE,148,2.0,4.0,97,0.00,CLR,,0.02,0.0,WeatherDisplay:10.37,2013-01-28 15:20:00,
2013-01-29 01:25:00,73.4,73.1,29.77,SE,131,1.0,4.0,99,0.00,CLR,,0.02,0.0,WeatherDisplay:10.37,2013-01-28 15:25:00,
2013-01-29 01:30:00,73.6,73.3,29.77,SE,146,0.0,2.0,99,0.00,CLR,,0.02,0.0,WeatherDisplay:10.37,2013-01-28 15:30:00,
2013-01-29 01:35:00,73.4,73.1,29.77,WSW,240,0.0,2.0,99,0.00,CLR,,0.02,0.0,WeatherDisplay:10.37,2013-01-28 15:35:00,
2013-01-29 01:40:00,73.2,72.3,29.77,WSW,242,0.0,2.0,97,0.00,CLR,,0.02,0.0,WeatherDisplay:10.37,2013-01-28 15:40:00,
2013-01-29 01:45:00,73.2,72.3,29.77,SW,235,1.0,2.0,97,0.00,CLR,,0.02,0.0,WeatherDisplay:10.37,2013-01-28 15:45:00,
2013-01-29 01:50:00,73.2,72.3,29.77,SW,214,2.0,6.0,97,0.00,CLR,,0.02,0.0,WeatherDisplay:10.37,2013-01-28 15:50:00,
2013-01-29 01:55:00,73.4,73.1,29.77,South,183,5.0,6.0,99,0.00,CLR,,0.02,0.0,WeatherDisplay:10.37,2013-01-28 15:55:00,
2013-01-29 02:00:00,73.6,73.3,29.77,South,179,3.0,6.0,99,0.00,CLR,,0.02,0.0,WeatherDisplay:10.37,2013-01-28 16:00:00,
2013-01-29 02:05:00,73.8,73.2,29.77,SSW,193,3.0,7.0,98,0.00,CLR,,0.02,0.0,WeatherDisplay:10.37,2013-01-28 16:05:00,
2013-01-29 02:10:00,73.8,73.2,29.76,South,189,3.0,6.0,98,0.00,CLR,,0.02,0.0,WeatherDisplay:10.37,2013-01-28 16:10:00,
2013-01-29 02:15:00,73.9,73.0,29.76,SSE,162,5.0,6.0,97,0.00,CLR,,0.02,0.0,WeatherDisplay:10.37,2013-01-28 16:15:00,
2013-01-29 02:20:00,74.0,73.1,29.77,South,172,5.0,8.0,97,0.00,CLR,,0.02,0.0,WeatherDisplay:10.37,2013-01-28 16:20:00,
2013-01-29 02:25:00,74.1,73.2,29.77,South,174,3.0,7.0,97,0.00,CLR,,0.02,0.0,WeatherDisplay:10.37,2013-01-28 16:25:00,
2013-01-29 02:30:00,74.1,73.2,29.77,SSE,166,2.0,6.0,97,0.00,CLR,,0.02,0.0,WeatherDisplay:10.37,2013-01-28 16:30:00,
2013-01-29 02:35:00,74.1,73.2,29.77,SSE,165,3.0,6.0,97,0.00,CLR,,0.02,0.0,WeatherDisplay:10.37,2013-01-28 16:35:00,
2013-01-29 02:40:00,74.3,73.4,29.76,SSE,164,5.0,7.0,97,0.00,CLR,,0.02,0.0,WeatherDisplay:10.37,2013-01-28 16:40:00,
2013-01-29 02:45:00,74.3,73.4,29.76,South,181,2.0,6.0,97,0.00,CLR,,0.02,0.0,WeatherDisplay:10.37,2013-01-28 16:45:00,
2013-01-29 02:50:00,74.3,73.1,29.77,South,182,3.0,6.0,96,0.00,CLR,,0.02,0.0,WeatherDisplay:10.37,2013-01-28 16:50:00,
2013-01-29 02:55:00,74.3,73.1,29.76,South,178,5.0,8.0,96,0.00,CLR,,0.02,0.0,WeatherDisplay:10.37,2013-01-28 16:55:00,
2013-01-29 03:00:00,74.5,73.0,29.76,South,171,3.0,6.0,95,0.00,CLR,,0.02,0.0,WeatherDisplay:10.37,2013-01-28 17:00:00,
2013-01-29 03:05:00,74.3,72.8,29.76,South,182,2.0,6.0,95,0.00,CLR,,0.02,0.0,WeatherDisplay:10.37,2013-01-28 17:05:00,
2013-01-29 03:10:00,74.5,73.0,29.76,South,182,5.0,6.0,95,0.00,CLR,,0.02,0.0,WeatherDisplay:10.37,2013-01-28 17:10:00,
2013-01-29 03:15:00,74.7,72.8,29.76,South,185,5.0,6.0,94,0.00,CLR,,0.02,0.0,WeatherDisplay:10.37,2013-01-28 17:15:00,
2013-01-29 03:20:00,74.8,72.6,29.76,SSW,212,2.0,8.0,93,0.00,CLR,,0.02,0.0,WeatherDisplay:10.37,2013-01-28 17:20:00,
2013-01-29 03:25:00,74.7,72.2,29.77,SW,225,1.0,5.0,92,0.00,CLR,,0.02,0.0,WeatherDisplay:10.37,2013-01-28 17:25:00,
2013-01-29 03:30:00,74.7,72.2,29.77,SSW,194,2.0,4.0,92,0.00,CLR,,0.02,0.0,WeatherDisplay:10.37,2013-01-28 17:30:00,
2013-01-29 03:35:00,74.7,72.2,29.77,SSW,202,2.0,4.0,92,0.00,CLR,,0.02,0.0,WeatherDisplay:10.37,2013-01-28 17:35:00,
2013-01-29 03:40:00,74.8,72.0,29.77,SSW,192,5.0,6.0,91,0.00,CLR,,0.02,0.0,WeatherDisplay:10.37,2013-01-28 17:40:00,
2013-01-29 03:45:00,74.8,72.0,29.77,South,185,3.0,8.0,91,0.00,CLR,,0.02,0.0,WeatherDisplay:10.37,2013-01-28 17:45:00,
2013-01-29 03:50:00,74.8,72.0,29.77,SSW,200,5.0,8.0,91,0.00,CLR,,0.02,0.0,WeatherDisplay:10.37,2013-01-28 17:50:00,
2013-01-29 03:55:00,74.8,71.7,29.77,SSW,205,3.0,7.0,90,0.00,CLR,,0.02,0.0,WeatherDisplay:10.37,2013-01-28 17:55:00,
2013-01-29 04:00:00,74.8,71.7,29.77,SSW,206,3.0,8.0,90,0.00,CLR,,0.02,0.0,WeatherDisplay:10.37,2013-01-28 18:00:00,
2013-01-29 04:05:00,74.7,71.5,29.77,SSW,202,3.0,6.0,90,0.00,CLR,,0.02,0.0,WeatherDisplay:10.37,2013-01-28 18:05:00,
2013-01-29 04:10:00,74.7,71.5,29.77,SSW,213,1.0,5.0,90,0.00,CLR,,0.02,0.0,WeatherDisplay:10.37,2013-01-28 18:10:00,
2013-01-29 04:15:00,74.6,71.5,29.77,SW,225,1.0,4.0,90,0.00,CLR,,0.02,0.0,WeatherDisplay:10.37,2013-01-28 18:15:00,
2013-01-29 04:20:00,74.5,71.7,29.77,SSW,201,2.0,3.0,91,0.00,CLR,,0.02,0.0,WeatherDisplay:10.37,2013-01-28 18:20:00,
2013-01-29 04:25:00,74.5,72.0,29.77,South,180,3.0,5.0,92,0.00,CLR,,0.02,0.0,WeatherDisplay:10.37,2013-01-28 18:25:00,
2013-01-29 04:30:00,74.3,71.8,29.78,South,184,2.0,5.0,92,0.00,CLR,,0.02,0.0,WeatherDisplay:10.37,2013-01-28 18:30:00,
2013-01-29 04:35:00,74.4,71.9,29.78,South,191,2.0,4.0,92,0.00,CLR,,0.02,0.0,WeatherDisplay:10.37,2013-01-28 18:35:00,
2013-01-29 04:40:00,74.5,71.7,29.78,SSW,207,3.0,4.0,91,0.00,CLR,,0.02,0.0,WeatherDisplay:10.37,2013-01-28 18:40:00,
2013-01-29 04:45:00,74.5,71.7,29.78,SSW,196,2.0,5.0,91,0.00,CLR,,0.02,0.0,WeatherDisplay:10.37,2013-01-28 18:45:00,
2013-01-29 04:50:00,74.7,71.9,29.78,SSW,194,2.0,5.0,91,0.00,CLR,,0.02,0.0,WeatherDisplay:10.37,2013-01-28 18:50:00,
2013-01-29 04:55:00,74.7,71.9,29.79,SSW,198,2.0,5.0,91,0.00,CLR,,0.02,0.0,WeatherDisplay:10.37,2013-01-28 18:55:00,
2013-01-29 05:00:00,74.8,71.7,29.78,SSW,203,2.0,6.0,90,0.00,CLR,,0.02,0.0,WeatherDisplay:10.37,2013-01-28 19:00:00,
2013-01-29 05:05:00,75.0,71.9,29.79,SSW,202,2.0,6.0,90,0.00,CLR,,0.02,0.0,WeatherDisplay:10.37,2013-01-28 19:05:00,
2013-01-29 05:10:00,75.0,71.9,29.79,South,181,2.0,6.0,90,0.00,CLR,,0.02,0.0,WeatherDisplay:10.37,2013-01-28 19:10:00,
2013-01-29 05:15:00,75.2,71.7,29.78,South,189,2.0,5.0,89,0.00,CLR,,0.02,0.0,WeatherDisplay:10.37,2013-01-28 19:15:00,
2013-01-29 05:20:00,75.2,71.7,29.79,SSW,195,2.0,4.0,89,0.00,CLR,,0.02,0.0,WeatherDisplay:10.37,2013-01-28 19:20:00,
2013-01-29 05:25:00,75.2,72.1,29.79,South,184,2.0,4.0,90,0.00,CLR,,0.02,0.0,WeatherDisplay:10.37,2013-01-28 19:25:00,
2013-01-29 05:30:00,75.2,72.1,29.79,SSW,195,1.0,3.0,90,0.00,CLR,,0.02,0.0,WeatherDisplay:10.37,2013-01-28 19:30:00,
2013-01-29 05:35:00,75.2,72.1,29.79,SSW,213,1.0,4.0,90,0.00,CLR,,0.02,0.0,WeatherDisplay:10.37,2013-01-28 19:35:00,
2013-01-29 05:40:00,75.0,72.2,29.79,SSW,199,2.0,4.0,91,0.00,CLR,,0.02,0.0,WeatherDisplay:10.37,2013-01-28 19:40:00,
2013-01-29 05:45:00,75.0,72.2,29.79,South,182,2.0,4.0,91,0.00,CLR,,0.02,0.0,WeatherDisplay:10.37,2013-01-28 19:45:00,
2013-01-29 05:50:00,75.0,72.5,29.79,South,174,3.0,5.0,92,0.00,CLR,,0.02,0.0,WeatherDisplay:10.37,2013-01-28 19:50:00,
2013-01-29 05:55:00,74.7,72.2,29.80,South,175,1.0,3.0,92,0.00,CLR,,0.02,0.0,WeatherDisplay:10.37,2013-01-28 19:55:00,
2013-01-29 06:00:00,74.5,72.3,29.80,South,180,2.0,3.0,93,0.00,CLR,,0.02,0.0,WeatherDisplay:10.37,2013-01-28 20:00:00,
2013-01-29 06:05:00,74.5,72.6,29.80,South,188,1.0,4.0,94,0.00,CLR,,0.02,0.0,WeatherDisplay:10.37,2013-01-28 20:05:00,
2013-01-29 06:10:00,74.3,72.5,29.80,SSW,202,1.0,3.0,94,0.00,CLR,,0.02,1.1,WeatherDisplay:10.37,2013-01-28 20:10:00,
2013-01-29 06:15:00,74.4,72.6,29.80,SSW,196,2.0,5.0,94,0.00,CLR,,0.02,4.0,WeatherDisplay:10.37,2013-01-28 20:15:00,
2013-01-29 06:20:00,75.0,73.2,29.81,South,187,2.0,6.0,94,0.00,CLR,,0.02,6.7,WeatherDisplay:10.37,2013-01-28 20:20:00,
2013-01-29 06:25:00,75.2,72.7,29.81,SSW,198,2.0,5.0,92,0.00,CLR,,0.02,12.3,WeatherDisplay:10.37,2013-01-28 20:25:00,
2013-01-29 06:30:00,75.6,72.7,29.81,SW,216,2.0,6.0,91,0.00,CLR,,0.02,22.5,WeatherDisplay:10.37,2013-01-28 20:30:00,
2013-01-29 06:40:00,76.1,73.3,29.81,SSW,203,2.0,6.0,91,0.00,BKN,,0.02,57.5,WeatherDisplay:10.37,2013-01-28 20:40:00,
2013-01-29 06:45:00,76.4,73.5,29.81,South,182,2.0,5.0,91,0.00,BKN,,0.02,95.3,WeatherDisplay:10.37,2013-01-28 20:45:00,
2013-01-29 06:50:00,77.1,73.6,29.82,SSW,196,2.0,6.0,89,0.00,BKN,,0.02,98.3,WeatherDisplay:10.37,2013-01-28 20:50:00,
2013-01-29 06:55:00,77.6,73.8,29.82,SSW,195,5.0,8.0,88,0.00,BKN,,0.02,112.9,WeatherDisplay:10.37,2013-01-28 20:55:00,
2013-01-29 07:00:00,77.7,73.9,29.82,SW,222,3.0,8.0,88,0.00,BKN,,0.02,149.5,WeatherDisplay:10.37,2013-01-28 21:00:00,
2013-01-29 07:05:00,77.8,74.0,29.82,SW,231,3.0,8.0,88,0.00,BKN,,0.02,194.9,WeatherDisplay:10.37,2013-01-28 21:05:00,
2013-01-29 07:10:00,78.5,74.7,29.82,SSW,194,3.0,8.0,88,0.00,SCT,,0.02,195.0,WeatherDisplay:10.37,2013-01-28 21:10:00,
2013-01-29 07:15:00,79.8,74.9,29.83,SSW,207,3.0,7.0,85,0.00,CLR,,0.02,299.0,WeatherDisplay:10.37,2013-01-28 21:15:00,
2013-01-29 07:20:00,82.0,76.0,29.83,SSW,209,2.0,8.0,82,0.00,CLR,,0.02,315.8,WeatherDisplay:10.37,2013-01-28 21:20:00,
2013-01-29 07:25:00,82.2,75.4,29.83,South,178,3.0,8.0,80,0.00,FEW,,0.02,225.9,WeatherDisplay:10.37,2013-01-28 21:25:00,
2013-01-29 07:30:00,80.7,74.4,29.83,SSW,193,5.0,9.0,81,0.00,FEW,,0.02,224.9,WeatherDisplay:10.37,2013-01-28 21:30:00,
2013-01-29 07:35:00,80.6,75.0,29.83,SSW,204,3.0,6.0,83,0.00,CLR,,0.02,298.1,WeatherDisplay:10.37,2013-01-28 21:35:00,
2013-01-29 07:40:00,81.0,75.3,29.83,South,190,3.0,6.0,83,0.00,CLR,,0.02,251.9,WeatherDisplay:10.37,2013-01-28 21:40:00,
2013-01-29 07:45:00,81.4,75.7,29.83,SSW,196,2.0,5.0,83,0.00,CLR,,0.02,260.0,WeatherDisplay:10.37,2013-01-28 21:45:00,
2013-01-29 07:50:00,82.2,76.2,29.83,SSW,204,3.0,7.0,82,0.00,CLR,,0.02,239.0,WeatherDisplay:10.37,2013-01-28 21:50:00,
2013-01-29 07:55:00,82.8,76.3,29.83,SW,219,2.0,6.0,81,0.00,CLR,,0.02,219.0,WeatherDisplay:10.37,2013-01-28 21:55:00,
2013-01-29 08:00:00,84.2,76.6,29.84,SSW,207,5.0,8.0,78,0.00,CLR,,0.02,199.0,WeatherDisplay:10.37,2013-01-28 22:00:00,
2013-01-29 08:05:00,84.2,76.6,29.84,SW,231,5.0,7.0,78,0.00,CLR,,0.02,180.0,WeatherDisplay:10.37,2013-01-28 22:05:00,
2013-01-29 08:10:00,85.4,77.3,29.84,WSW,241,3.0,6.0,77,0.00,CLR,,0.02,161.0,WeatherDisplay:10.37,2013-01-28 22:10:00,
2013-01-29 08:15:00,86.3,77.1,29.84,SW,224,5.0,11.0,74,0.00,CLR,,0.02,142.0,WeatherDisplay:10.37,2013-01-28 22:15:00,
2013-01-29 08:20:00,85.4,76.2,29.84,WSW,251,7.0,15.0,74,0.00,CLR,,0.02,124.0,WeatherDisplay:10.37,2013-01-28 22:20:00,
2013-01-29 08:25:00,84.0,76.0,29.84,West,271,5.0,12.0,77,0.00,CLR,,0.02,107.0,WeatherDisplay:10.37,2013-01-28 22:25:00,
2013-01-29 08:30:00,84.9,76.5,29.84,West,271,7.0,13.0,76,0.00,CLR,,0.02,90.0,WeatherDisplay:10.37,2013-01-28 22:30:00,
2013-01-29 08:35:00,84.2,75.8,29.84,West,269,3.0,10.0,76,0.00,CLR,,0.02,73.0,WeatherDisplay:10.37,2013-01-28 22:35:00,
2013-01-29 08:42:00,84.5,76.1,29.85,North,0,11.5,0.0,76,0.00,OVC,,0.02,0.0,WeatherDisplay:10.37,2013-01-28 22:42:00,
2013-01-29 08:47:00,84.7,76.3,29.84,SW,225,9.2,9.2,76,0.00,RA,,0.02,824.2,WeatherDisplay:10.37,2013-01-28 22:47:00,
2013-01-29 08:52:00,85.5,76.6,29.84,South,180,11.5,11.5,75,0.00,RA,,0.02,22.0,WeatherDisplay:10.37,2013-01-28 22:52:00,
2013-01-29 08:57:00,86.7,76.6,29.85,SW,225,5.8,5.8,72,0.00,CLR,,0.02,811.6,WeatherDisplay:10.37,2013-01-28 22:57:00,
2013-01-29 09:02:00,86.9,76.8,29.84,South,180,5.8,5.8,72,0.00,RA,,0.00,936.5,WeatherDisplay:10.37,2013-01-28 23:02:00,
2013-01-29 09:07:00,88.0,76.1,29.85,North,0,12.7,12.7,68,0.00,RA,,0.00,889.6,WeatherDisplay:10.37,2013-01-28 23:07:00,
2013-01-29 09:12:00,86.5,74.7,29.84,SW,225,17.3,17.3,68,0.00,OVC,,0.00,909.3,WeatherDisplay:10.37,2013-01-28 23:12:00,
2013-01-29 09:17:00,87.4,75.6,29.84,SE,135,10.4,10.4,68,0.00,OVC,,0.00,1010.5,WeatherDisplay:10.37,2013-01-28 23:17:00,
2013-01-29 09:22:00,87.3,75.0,29.84,SW,225,12.7,12.7,67,0.00,OVC,,0.00,1104.7,WeatherDisplay:10.37,2013-01-28 23:22:00,
2013-01-29 09:27:00,87.1,74.8,29.85,NW,315,8.1,8.1,67,0.00,OVC,,0.00,475.9,WeatherDisplay:10.37,2013-01-28 23:27:00,
2013-01-29 09:32:00,87.6,75.7,29.84,South,180,15.0,15.0,68,0.00,OVC,,0.00,370.9,WeatherDisplay:10.37,2013-01-28 23:32:00,
2013-01-29 09:37:00,86.9,74.2,29.84,West,270,17.3,17.3,66,0.00,OVC,,0.00,733.9,WeatherDisplay:10.37,2013-01-28 23:37:00,
2013-01-29 09:42:00,85.6,74.3,29.84,SW,225,15.0,15.0,69,0.00,OVC,,0.00,1180.3,WeatherDisplay:10.37,2013-01-28 23:42:00,
2013-01-29 09:47:00,86.7,74.4,29.84,West,270,10.4,10.4,67,0.00,OVC,,0.00,334.3,WeatherDisplay:10.37,2013-01-28 23:47:00,
2013-01-29 09:52:00,88.2,74.9,29.84,South,180,8.1,8.1,65,0.00,OVC,,0.00,1188.1,WeatherDisplay:10.37,2013-01-28 23:52:00,
2013-01-29 09:57:00,88.9,74.7,29.84,NW,315,10.4,10.4,63,0.00,OVC,,0.00,1218.5,WeatherDisplay:10.37,2013-01-28 23:57:00,
2013-01-29 10:02:00,88.9,74.2,29.84,SW,225,10.4,10.4,62,0.00,OVC,,0.00,1391.4,WeatherDisplay:10.37,2013-01-29 00:02:00,
2013-01-29 10:07:00,88.5,73.8,29.83,NNW,338,12.7,12.7,62,0.00,OVC,,0.00,430.9,WeatherDisplay:10.37,2013-01-29 00:07:00,
2013-01-29 10:13:00,88.2,73.5,29.84,West,270,12.7,12.7,62,0.00,OVC,,0.00,436.6,WeatherDisplay:10.37,2013-01-29 00:13:00,
2013-01-29 10:17:00,87.3,73.6,29.84,NW,315,9.2,9.2,64,0.00,OVC,,0.00,892.6,WeatherDisplay:10.37,2013-01-29 00:17:00,
2013-01-29 10:22:00,86.9,73.7,29.84,West,270,10.4,10.4,65,0.00,OVC,,0.00,1405.6,WeatherDisplay:10.37,2013-01-29 00:22:00,
2013-01-29 10:30:00,88.4,73.7,29.83,West,273,5.0,8.0,62,0.00,OVC,,0.00,589.9,WeatherDisplay:10.37,2013-01-29 00:30:00,
2013-01-29 10:35:00,88.2,73.5,29.84,NW,315,10.4,10.4,62,0.00,OVC,,0.00,538.6,WeatherDisplay:10.37,2013-01-29 00:35:00,
2013-01-29 10:40:00,88.7,73.0,29.83,NW,304,6.0,13.0,60,0.00,OVC,,0.00,1474.0,WeatherDisplay:10.37,2013-01-29 00:40:00,
2013-01-29 10:45:00,89.2,73.0,29.83,WNW,292,11.5,11.5,59,0.00,OVC,,0.00,1506.2,WeatherDisplay:10.37,2013-01-29 00:45:00,
2013-01-29 10:50:00,90.3,73.5,29.83,WNW,300,5.0,14.0,58,0.00,OVC,,0.00,1470.6,WeatherDisplay:10.37,2013-01-29 00:50:00,
2013-01-29 10:55:00,90.9,74.0,29.83,SW,225,15.0,15.0,58,0.00,OVC,,0.00,1070.2,WeatherDisplay:10.37,2013-01-29 00:55:00,
2013-01-29 11:00:00,90.3,73.0,29.83,West,272,7.0,15.0,57,0.00,OVC,,0.00,991.7,WeatherDisplay:10.37,2013-01-29 01:00:00,
2013-01-29 11:05:00,90.4,72.6,29.83,West,269,5.0,10.0,56,0.00,OVC,,0.00,1475.4,WeatherDisplay:10.37,2013-01-29 01:05:00,
2013-01-29 11:10:00,91.7,73.2,29.83,WSW,252,9.0,13.0,55,0.00,OVC,,0.00,1510.2,WeatherDisplay:10.37,2013-01-29 01:10:00,
2013-01-29 11:15:00,91.2,72.2,29.82,West,270,12.7,12.7,54,0.00,OVC,,0.00,1507.7,WeatherDisplay:10.37,2013-01-29 01:15:00,
2013-01-29 11:20:00,90.9,71.4,29.82,WSW,244,8.0,13.0,53,0.00,OVC,,0.00,1451.6,WeatherDisplay:10.37,2013-01-29 01:20:00,
2013-01-29 11:25:00,90.5,71.0,29.82,SW,225,18.4,18.4,53,0.00,OVC,,0.00,1420.5,WeatherDisplay:10.37,2013-01-29 01:25:00,
2013-01-29 11:30:00,91.9,72.4,29.82,NW,315,6.9,7.6,53,0.00,OVC,,0.00,1525.6,WeatherDisplay:10.37,2013-01-29 01:30:00,
2013-01-29 11:35:00,92.1,72.0,29.82,SSE,161,8.0,13.0,52,0.00,OVC,,0.00,1241.7,WeatherDisplay:10.37,2013-01-29 01:35:00,
2013-01-29 11:40:00,91.6,71.5,29.81,South,180,11.5,11.5,52,0.00,OVC,,0.00,1561.3,WeatherDisplay:10.37,2013-01-29 01:40:00,
2013-01-29 11:45:00,91.8,71.1,29.81,SW,225,15.0,15.0,51,0.00,OVC,,0.00,1581.2,WeatherDisplay:10.37,2013-01-29 01:45:00,
2013-01-29 11:50:00,92.1,70.8,29.81,West,270,11.5,11.5,50,0.00,OVC,,0.00,1645.0,WeatherDisplay:10.37,2013-01-29 01:50:00,
2013-01-29 11:55:00,93.0,71.0,29.81,NW,315,11.5,11.5,49,0.00,OVC,,0.00,1693.3,WeatherDisplay:10.37,2013-01-29 01:55:00,
2013-01-29 12:00:00,92.7,70.1,29.81,West,270,12.7,12.7,48,0.00,OVC,,0.00,1659.4,WeatherDisplay:10.37,2013-01-29 02:00:00,
2013-01-29 12:05:00,93.0,71.6,29.81,West,281,8.0,13.0,50,0.00,OVC,,0.00,1473.4,WeatherDisplay:10.37,2013-01-29 02:05:00,
2013-01-29 12:10:00,92.8,71.5,29.80,South,180,13.8,13.8,50,0.00,OVC,,0.00,1398.2,WeatherDisplay:10.37,2013-01-29 02:10:00,
2013-01-29 12:15:00,92.8,71.5,29.80,West,270,12.7,12.7,50,0.00,OVC,,0.00,1545.0,WeatherDisplay:10.37,2013-01-29 02:15:00,
2013-01-29 12:20:00,93.6,72.2,29.80,West,275,8.0,13.0,50,0.00,OVC,,0.00,1652.9,WeatherDisplay:10.37,2013-01-29 02:20:00,
2013-01-29 12:25:00,93.2,71.2,29.80,NW,315,12.7,12.7,49,0.00,OVC,,0.00,1628.9,WeatherDisplay:10.37,2013-01-29 02:25:00,
2013-01-29 12:30:00,93.6,71.5,29.80,West,270,8.1,8.1,49,0.00,OVC,,0.00,1664.1,WeatherDisplay:10.37,2013-01-29 02:30:00,
2013-01-29 12:35:00,94.1,71.4,29.80,WNW,295,8.0,17.0,48,0.00,OVC,,0.00,1582.7,WeatherDisplay:10.37,2013-01-29 02:35:00,
2013-01-29 12:40:00,93.7,70.5,29.79,WNW,292,12.7,12.7,47,0.00,OVC,,0.00,1661.7,WeatherDisplay:10.37,2013-01-29 02:40:00,
2013-01-29 12:45:00,94.0,71.3,29.79,West,268,8.0,15.0,48,0.00,OVC,,0.00,1517.2,WeatherDisplay:10.37,2013-01-29 02:45:00,
2013-01-29 12:50:00,94.5,71.1,29.79,NW,315,10.4,10.4,47,0.00,OVC,,0.00,1599.3,WeatherDisplay:10.37,2013-01-29 02:50:00,
2013-01-29 12:55:00,94.6,70.0,29.79,West,270,11.5,11.5,45,0.00,OVC,,0.00,1623.4,WeatherDisplay:10.37,2013-01-29 02:55:00,
2013-01-29 13:00:00,94.3,69.0,29.79,West,270,12.7,12.7,44,0.00,OVC,,0.00,1618.5,WeatherDisplay:10.37,2013-01-29 03:00:00,
2013-01-29 13:05:00,94.8,70.2,29.78,SW,225,12.7,12.7,45,0.00,OVC,,0.00,1639.1,WeatherDisplay:10.37,2013-01-29 03:05:00,
2013-01-29 13:10:00,95.3,69.9,29.78,SW,229,8.0,17.0,44,0.00,OVC,,0.00,1654.5,WeatherDisplay:10.37,2013-01-29 03:10:00,
2013-01-29 13:15:00,95.4,69.3,29.78,South,180,11.5,11.5,43,0.00,OVC,,0.00,1646.0,WeatherDisplay:10.37,2013-01-29 03:15:00,
2013-01-29 13:20:00,96.1,68.6,29.78,South,180,12.7,12.7,41,0.00,OVC,,0.00,1639.3,WeatherDisplay:10.37,2013-01-29 03:20:00,
2013-01-29 13:25:00,95.4,70.0,29.78,SSW,194,10.0,16.0,44,0.00,OVC,,0.00,1619.7,WeatherDisplay:10.37,2013-01-29 03:25:00,
2013-01-29 13:30:00,95.9,69.1,29.78,South,190,7.0,16.0,42,0.00,OVC,,0.00,1615.9,WeatherDisplay:10.37,2013-01-29 03:30:00,
2013-01-29 13:35:00,96.1,70.0,29.77,SE,135,10.4,10.4,43,0.00,OVC,,0.00,1614.9,WeatherDisplay:10.37,2013-01-29 03:35:00,
2013-01-29 13:40:00,97.0,70.1,29.77,NW,315,11.5,11.5,42,0.00,OVC,,0.00,1608.1,WeatherDisplay:10.37,2013-01-29 03:40:00,
2013-01-29 13:45:00,96.1,70.0,29.77,WSW,250,7.0,17.0,43,0.00,OVC,,0.00,1580.1,WeatherDisplay:10.37,2013-01-29 03:45:00,
2013-01-29 13:50:00,95.9,70.5,29.77,South,180,8.1,8.1,44,0.00,OVC,,0.00,1577.3,WeatherDisplay:10.37,2013-01-29 03:50:00,
2013-01-29 13:55:00,96.6,71.1,29.76,South,179,10.0,16.0,44,0.00,OVC,,0.00,1581.1,WeatherDisplay:10.37,2013-01-29 03:55:00,
2013-01-29 14:00:00,96.3,70.1,29.76,SW,225,15.0,15.0,43,0.00,OVC,,0.00,1552.4,WeatherDisplay:10.37,2013-01-29 04:00:00,
2013-01-29 14:05:00,96.1,70.6,29.76,WSW,243,7.0,13.0,44,0.00,OVC,,0.00,1511.7,WeatherDisplay:10.37,2013-01-29 04:05:00,
2013-01-29 14:10:00,97.0,70.8,29.76,WSW,248,3.0,15.0,43,0.00,OVC,,0.00,1380.5,WeatherDisplay:10.37,2013-01-29 04:10:00,
2013-01-29 14:15:00,97.2,70.2,29.75,South,180,12.7,12.7,42,0.00,OVC,,0.00,1540.3,WeatherDisplay:10.37,2013-01-29 04:15:00,
2013-01-29 14:20:00,97.6,70.6,29.75,SW,223,3.0,10.0,42,0.00,OVC,,0.00,1527.1,WeatherDisplay:10.37,2013-01-29 04:20:00,
2013-01-29 14:25:00,98.7,70.2,29.75,SW,217,7.0,13.0,40,0.00,OVC,,0.00,1502.3,WeatherDisplay:10.37,2013-01-29 04:25:00,
2013-01-29 14:30:00,98.6,70.8,29.75,West,270,10.4,10.4,41,0.00,OVC,,0.00,1497.8,WeatherDisplay:10.37,2013-01-29 04:30:00,
2013-01-29 14:35:00,98.3,71.3,29.75,West,262,5.0,10.0,42,0.00,OVC,,0.00,1494.7,WeatherDisplay:10.37,2013-01-29 04:35:00,
2013-01-29 14:40:00,98.2,70.5,29.75,West,270,17.3,17.3,41,0.00,OVC,,0.00,1474.3,WeatherDisplay:10.37,2013-01-29 04:40:00,
2013-01-29 14:45:00,97.0,70.8,29.75,SW,225,11.5,11.5,43,0.00,OVC,,0.00,1454.3,WeatherDisplay:10.37,2013-01-29 04:45:00,
2013-01-29 14:50:00,97.7,70.7,29.75,West,263,5.0,11.0,42,0.00,OVC,,0.00,1438.3,WeatherDisplay:10.37,2013-01-29 04:50:00,
2013-01-29 14:55:00,97.9,70.9,29.74,West,273,6.0,14.0,42,0.00,OVC,,0.00,1427.9,WeatherDisplay:10.37,2013-01-29 04:55:00,
2013-01-29 15:01:00,98.2,70.5,29.74,West,270,11.5,11.5,41,0.00,OVC,,0.00,1412.5,WeatherDisplay:10.37,2013-01-29 05:01:00,
2013-01-29 15:03:00,98.4,69.9,29.74,South,180,8.1,8.1,40,0.00,OVC,,0.00,1408.3,WeatherDisplay:10.37,2013-01-29 05:03:00,
2013-01-29 15:08:00,98.8,68.0,29.74,SW,225,15.0,15.0,37,0.00,OVC,,0.00,1395.5,WeatherDisplay:10.37,2013-01-29 05:08:00,
2013-01-29 15:13:00,97.9,68.0,29.74,SW,225,10.4,10.4,38,0.00,OVC,,0.00,1370.3,WeatherDisplay:10.37,2013-01-29 05:13:00,
2013-01-29 15:18:00,98.6,68.6,29.74,WNW,292,5.8,5.8,38,0.00,OVC,,0.00,1367.7,WeatherDisplay:10.37,2013-01-29 05:18:00,
2013-01-29 15:23:00,99.3,66.8,29.73,SW,225,15.0,15.0,35,0.00,OVC,,0.00,1357.8,WeatherDisplay:10.37,2013-01-29 05:23:00,
2013-01-29 15:28:00,99.9,67.3,29.73,NW,315,10.7,10.7,35,0.00,OVC,,0.00,1338.2,WeatherDisplay:10.37,2013-01-29 05:28:00,
2013-01-29 15:33:00,99.0,66.5,29.73,South,180,10.4,10.4,35,0.00,OVC,,0.00,1305.4,WeatherDisplay:10.37,2013-01-29 05:33:00,
2013-01-29 15:38:00,99.1,67.5,29.73,West,270,8.1,8.1,36,0.00,OVC,,0.00,1269.4,WeatherDisplay:10.37,2013-01-29 05:38:00,
2013-01-29 15:43:00,99.5,66.2,29.73,SW,225,12.7,12.7,34,0.00,OVC,,0.00,1194.8,WeatherDisplay:10.37,2013-01-29 05:43:00,
2013-01-29 15:48:00,99.1,65.0,29.73,SW,225,10.4,10.4,33,0.00,OVC,,0.00,1136.1,WeatherDisplay:10.37,2013-01-29 05:48:00,
2013-01-29 15:53:00,99.7,66.3,29.73,West,270,10.4,10.4,34,0.00,OVC,,0.00,1093.1,WeatherDisplay:10.37,2013-01-29 05:53:00,
2013-01-29 15:58:00,99.1,65.8,29.73,West,270,13.8,13.8,34,0.00,OVC,,0.00,1038.6,WeatherDisplay:10.37,2013-01-29 05:58:00,
2013-01-29 16:03:00,100.0,65.8,29.73,SSW,202,9.2,9.2,33,0.00,OVC,,0.00,994.0,WeatherDisplay:10.37,2013-01-29 06:03:00,
2013-01-29 16:08:00,100.2,65.9,29.73,NW,315,10.4,10.4,33,0.00,OVC,,0.00,949.4,WeatherDisplay:10.37,2013-01-29 06:08:00,
2013-01-29 16:13:00,100.6,67.9,29.73,West,270,12.7,12.7,35,0.00,OVC,,0.00,904.3,WeatherDisplay:10.37,2013-01-29 06:13:00,
2013-01-29 16:18:00,99.9,65.6,29.73,NW,315,12.7,12.7,33,0.00,OVC,,0.00,858.3,WeatherDisplay:10.37,2013-01-29 06:18:00,
2013-01-29 16:23:00,99.3,66.8,29.73,West,270,6.9,6.9,35,0.00,OVC,,0.00,815.9,WeatherDisplay:10.37,2013-01-29 06:23:00,
2013-01-29 16:28:00,99.7,66.3,29.72,South,180,15.0,15.0,34,0.00,OVC,,0.00,770.2,WeatherDisplay:10.37,2013-01-29 06:28:00,
2013-01-29 16:33:00,100.4,68.6,29.72,SW,225,11.5,11.5,36,0.00,OVC,,0.00,710.3,WeatherDisplay:10.37,2013-01-29 06:33:00,
2013-01-29 16:38:00,99.7,64.6,29.72,NW,315,8.1,8.3,32,0.00,OVC,,0.00,681.0,WeatherDisplay:10.37,2013-01-29 06:38:00,
2013-01-29 16:43:00,99.7,65.5,29.72,West,270,8.1,8.1,33,0.00,OVC,,0.00,643.6,WeatherDisplay:10.37,2013-01-29 06:43:00,
2013-01-29 16:48:00,100.4,67.8,29.72,West,270,5.8,5.8,35,0.00,OVC,,0.00,608.5,WeatherDisplay:10.37,2013-01-29 06:48:00,
2013-01-29 16:53:00,99.9,64.7,29.72,South,180,12.7,12.7,32,0.00,OVC,,0.00,571.0,WeatherDisplay:10.37,2013-01-29 06:53:00,
2013-01-29 16:58:00,99.5,64.4,29.72,SE,135,9.2,9.2,32,0.00,OVC,,0.00,536.6,WeatherDisplay:10.37,2013-01-29 06:58:00,
2013-01-29 17:04:00,99.9,64.7,29.72,SW,225,10.4,10.4,32,0.00,CLR,,0.00,503.6,WeatherDisplay:10.37,2013-01-29 07:04:00,
2013-01-29 17:09:00,100.2,65.9,29.72,West,270,12.7,12.7,33,0.00,CLR,,0.00,474.6,WeatherDisplay:10.37,2013-01-29 07:09:00,
2013-01-29 17:14:00,99.9,65.6,29.72,West,270,10.4,10.4,33,0.00,CLR,,0.00,447.0,WeatherDisplay:10.37,2013-01-29 07:14:00,
2013-01-29 17:19:00,99.0,65.7,29.72,NNW,338,15.0,15.0,34,0.00,CLR,,0.00,417.8,WeatherDisplay:10.37,2013-01-29 07:19:00,
2013-01-29 17:24:00,98.8,66.4,29.72,West,270,6.9,6.9,35,0.00,CLR,,0.00,398.7,WeatherDisplay:10.37,2013-01-29 07:24:00,
2013-01-29 17:29:00,99.0,65.7,29.72,West,270,9.2,9.2,34,0.00,CLR,,0.00,382.5,WeatherDisplay:10.37,2013-01-29 07:29:00,
2013-01-29 17:34:00,99.3,66.0,29.72,NW,315,6.9,6.9,34,0.00,CLR,,0.00,372.4,WeatherDisplay:10.37,2013-01-29 07:34:00,
2013-01-29 17:39:00,99.3,66.0,29.73,West,270,5.8,5.8,34,0.00,CLR,,0.00,368.2,WeatherDisplay:10.37,2013-01-29 07:39:00,
2013-01-29 17:44:00,99.5,65.3,29.73,SW,225,6.9,6.9,33,0.00,CLR,,0.00,370.8,WeatherDisplay:10.37,2013-01-29 07:44:00,
2013-01-29 17:49:00,99.0,63.9,29.73,SW,225,10.4,10.4,32,0.00,CLR,,0.00,362.4,WeatherDisplay:10.37,2013-01-29 07:49:00,
2013-01-29 17:54:00,99.0,64.8,29.73,NW,315,10.4,10.4,33,0.00,CLR,,0.00,344.1,WeatherDisplay:10.37,2013-01-29 07:54:00,
2013-01-29 17:59:00,98.1,64.9,29.74,WNW,292,11.5,11.5,34,0.00,CLR,,0.00,323.6,WeatherDisplay:10.37,2013-01-29 07:59:00,
2013-01-29 18:04:00,97.9,65.6,29.74,SW,225,8.1,8.1,35,0.00,CLR,,0.00,291.1,WeatherDisplay:10.37,2013-01-29 08:04:00,
2013-01-29 18:09:00,97.5,64.4,29.74,West,270,9.2,9.2,34,0.00,CLR,,0.00,249.2,WeatherDisplay:10.37,2013-01-29 08:09:00,
2013-01-29 18:14:00,97.0,64.0,29.74,West,270,8.1,8.1,34,0.00,CLR,,0.00,217.7,WeatherDisplay:10.37,2013-01-29 08:14:00,
2013-01-29 18:19:00,97.0,64.8,29.74,NW,315,5.8,5.8,35,0.00,CLR,,0.00,182.3,WeatherDisplay:10.37,2013-01-29 08:19:00,
2013-01-29 18:24:00,96.4,65.1,29.75,NW,315,3.5,3.5,36,0.00,CLR,,0.00,154.8,WeatherDisplay:10.37,2013-01-29 08:24:00,
2013-01-29 18:29:00,96.4,65.1,29.75,West,270,6.9,6.9,36,0.00,CLR,,0.00,83.3,WeatherDisplay:10.37,2013-01-29 08:29:00,
2013-01-29 18:34:00,95.9,65.4,29.75,West,270,5.8,5.8,37,0.00,CLR,,0.00,82.4,WeatherDisplay:10.37,2013-01-29 08:34:00,
2013-01-29 18:39:00,95.0,64.6,29.75,NW,315,4.6,4.6,37,0.00,CLR,,0.00,41.3,WeatherDisplay:10.37,2013-01-29 08:39:00,
2013-01-29 18:44:00,94.5,64.9,29.76,WNW,292,4.6,4.6,38,0.00,CLR,,0.00,31.5,WeatherDisplay:10.37,2013-01-29 08:44:00,
2013-01-29 18:49:00,93.9,64.5,29.75,West,270,3.5,3.5,38,0.00,CLR,,0.00,14.8,WeatherDisplay:10.37,2013-01-29 08:49:00,
2013-01-29 18:54:00,93.2,64.6,29.76,NW,315,2.3,2.3,39,0.00,CLR,,0.00,8.1,WeatherDisplay:10.37,2013-01-29 08:54:00,
2013-01-29 18:59:00,92.8,65.0,29.76,West,270,3.5,3.5,40,0.00,CLR,,0.00,3.0,WeatherDisplay:10.37,2013-01-29 08:59:00,
2013-01-29 19:04:00,92.5,64.6,29.77,SW,225,3.5,3.5,40,0.00,CLR,,0.00,0.0,WeatherDisplay:10.37,2013-01-29 09:04:00,
2013-01-29 19:09:00,92.3,65.2,29.77,West,270,3.5,3.5,41,0.00,CLR,,0.00,0.0,WeatherDisplay:10.37,2013-01-29 09:09:00,
2013-01-29 19:14:00,91.8,64.7,29.77,WNW,292,3.5,3.5,41,0.00,CLR,,0.00,0.0,WeatherDisplay:10.37,2013-01-29 09:14:00,
2013-01-29 19:19:00,91.4,65.1,29.77,NW,315,2.3,2.3,42,0.00,CLR,,0.00,0.0,WeatherDisplay:10.37,2013-01-29 09:19:00,
2013-01-29 19:24:00,91.0,64.1,29.78,West,270,2.3,2.3,41,0.00,CLR,,0.00,0.0,WeatherDisplay:10.37,2013-01-29 09:24:00,
2013-01-29 19:29:00,90.7,64.4,29.78,North,0,1.1,1.1,42,0.00,CLR,,0.00,0.0,WeatherDisplay:10.37,2013-01-29 09:29:00,
2013-01-29 19:34:00,89.8,65.0,29.78,NE,45,3.5,3.5,44,0.00,CLR,,0.00,0.0,WeatherDisplay:10.37,2013-01-29 09:34:00,
2013-01-29 19:39:00,88.7,66.5,29.78,NW,315,1.1,1.1,48,0.00,CLR,,0.00,0.0,WeatherDisplay:10.37,2013-01-29 09:39:00,
2013-01-29 19:44:00,87.8,66.8,29.79,North,0,1.1,0.0,50,0.00,CLR,,0.00,0.0,WeatherDisplay:10.37,2013-01-29 09:44:00,
2013-01-29 19:49:00,87.1,66.2,29.79,North,0,0.0,0.0,50,0.00,CLR,,0.00,0.0,WeatherDisplay:10.37,2013-01-29 09:49:00,
2013-01-29 19:54:00,86.5,66.8,29.80,West,270,1.1,0.0,52,0.00,CLR,,0.00,0.0,WeatherDisplay:10.37,2013-01-29 09:54:00,
2013-01-29 19:59:00,86.2,67.6,29.80,SE,135,2.3,2.3,54,0.00,CLR,,0.00,0.0,WeatherDisplay:10.37,2013-01-29 09:59:00,
2013-01-29 20:04:00,85.5,68.5,29.80,ESE,112,3.5,3.5,57,0.00,CLR,,0.00,0.0,WeatherDisplay:10.37,2013-01-29 10:04:00,
2013-01-29 20:09:00,84.9,69.0,29.81,SE,135,4.6,4.6,59,0.00,CLR,,0.00,0.0,WeatherDisplay:10.37,2013-01-29 10:09:00,
2013-01-29 20:14:00,84.2,68.8,29.81,South,180,3.5,3.5,60,0.00,CLR,,0.00,0.0,WeatherDisplay:10.37,2013-01-29 10:14:00,
2013-01-29 20:19:00,84.9,68.5,29.81,SE,135,2.3,2.3,58,0.00,CLR,,0.00,0.0,WeatherDisplay:10.37,2013-01-29 10:19:00,
2013-01-29 20:24:00,85.1,69.7,29.81,SE,135,3.5,3.5,60,0.00,CLR,,0.00,0.0,WeatherDisplay:10.37,2013-01-29 10:24:00,
2013-01-29 20:29:00,84.9,70.0,29.81,SE,135,5.8,5.8,61,0.00,CLR,,0.00,0.0,WeatherDisplay:10.37,2013-01-29 10:29:00,
2013-01-29 20:34:00,84.7,70.7,29.82,SE,135,10.7,10.7,63,0.00,CLR,,0.00,0.0,WeatherDisplay:10.37,2013-01-29 10:34:00,
2013-01-29 20:39:00,85.5,71.4,29.82,East,90,12.7,12.7,63,0.00,CLR,,0.00,0.0,WeatherDisplay:10.37,2013-01-29 10:39:00,
2013-01-29 20:44:00,86.0,70.5,29.82,South,180,10.4,10.4,60,0.00,CLR,,0.00,0.0,WeatherDisplay:10.37,2013-01-29 10:44:00,
2013-01-29 20:49:00,86.0,70.0,29.82,SE,135,11.5,11.5,59,0.00,CLR,,0.00,0.0,WeatherDisplay:10.37,2013-01-29 10:49:00,
2013-01-29 20:54:00,85.8,70.3,29.82,SE,135,6.9,6.9,60,0.00,CLR,,0.00,0.0,WeatherDisplay:10.37,2013-01-29 10:54:00,
2013-01-29 20:59:00,85.8,69.8,29.82,SE,135,4.6,4.6,59,0.00,CLR,,0.00,0.0,WeatherDisplay:10.37,2013-01-29 10:59:00,
2013-01-29 21:04:00,85.6,69.7,29.82,SE,135,3.5,3.5,59,0.00,CLR,,0.00,0.0,WeatherDisplay:10.37,2013-01-29 11:04:00,
2013-01-29 21:09:00,85.6,70.2,29.82,SE,135,2.3,0.0,60,0.00,CLR,,0.00,0.0,WeatherDisplay:10.37,2013-01-29 11:09:00,
2013-01-29 21:14:00,85.5,69.5,29.82,NE,45,2.3,2.3,59,0.00,CLR,,0.00,0.0,WeatherDisplay:10.37,2013-01-29 11:14:00,
2013-01-29 21:19:00,85.5,69.5,29.83,North,0,1.1,1.1,59,0.00,CLR,,0.00,0.0,WeatherDisplay:10.37,2013-01-29 11:19:00,
2013-01-29 21:24:00,85.3,69.8,29.82,North,0,1.1,1.1,60,0.00,CLR,,0.00,0.0,WeatherDisplay:10.37,2013-01-29 11:24:00,
2013-01-29 21:29:00,84.7,69.8,29.83,NE,45,1.1,0.0,61,0.00,CLR,,0.00,0.0,WeatherDisplay:10.37,2013-01-29 11:29:00,
2013-01-29 21:34:00,84.2,70.2,29.82,North,0,1.1,1.1,63,0.00,CLR,,0.00,0.0,WeatherDisplay:10.37,2013-01-29 11:34:00,
2013-01-29 21:39:00,83.8,71.3,29.82,SE,135,1.1,0.0,66,0.00,CLR,,0.00,0.0,WeatherDisplay:10.37,2013-01-29 11:39:00,
2013-01-29 21:44:00,83.5,70.9,29.83,North,0,1.1,0.0,66,0.00,CLR,,0.00,0.0,WeatherDisplay:10.37,2013-01-29 11:44:00,
2013-01-29 21:49:00,83.5,71.4,29.83,South,180,3.5,3.5,67,0.00,CLR,,0.00,0.0,WeatherDisplay:10.37,2013-01-29 11:49:00,
2013-01-29 21:54:00,82.9,70.9,29.83,SW,225,1.1,0.0,67,0.00,CLR,,0.00,0.0,WeatherDisplay:10.37,2013-01-29 11:54:00,
2013-01-29 21:59:00,82.6,70.5,29.83,NW,315,1.1,1.1,67,0.00,CLR,,0.00,0.0,WeatherDisplay:10.37,2013-01-29 11:59:00,
2013-01-29 22:04:00,82.0,70.9,29.83,SW,225,2.3,2.3,69,0.00,CLR,,0.00,0.0,WeatherDisplay:10.37,2013-01-29 12:04:00,
2013-01-29 22:09:00,81.3,71.0,29.83,SW,225,2.2,2.2,71,0.00,CLR,,0.00,0.0,WeatherDisplay:10.37,2013-01-29 12:09:00,
2013-01-29 22:14:00,81.0,70.7,29.83,SW,225,1.1,1.1,71,0.00,CLR,,0.00,0.0,WeatherDisplay:10.37,2013-01-29 12:14:00,
2013-01-29 22:19:00,81.1,70.8,29.82,West,270,3.5,3.5,71,0.00,CLR,,0.00,0.0,WeatherDisplay:10.37,2013-01-29 12:19:00,
2013-01-29 22:25:00,81.0,71.1,29.82,South,180,2.3,2.3,72,0.00,CLR,,0.00,0.0,WeatherDisplay:10.37,2013-01-29 12:25:00,
2013-01-29 22:30:00,80.8,72.1,29.82,South,180,3.5,3.5,75,0.00,CLR,,0.00,0.0,WeatherDisplay:10.37,2013-01-29 12:30:00,
2013-01-29 22:35:00,80.4,71.8,29.83,SSE,149,3.0,5.0,75,0.00,CLR,,0.00,0.0,WeatherDisplay:10.37,2013-01-29 12:35:00,
2013-01-29 22:40:00,80.4,71.4,29.82,SSE,148,5.0,6.0,74,0.00,CLR,,0.00,0.0,WeatherDisplay:10.37,2013-01-29 12:40:00,
2013-01-29 22:45:00,79.5,71.7,29.83,East,90,5.8,5.8,77,0.00,CLR,,0.00,0.0,WeatherDisplay:10.37,2013-01-29 12:45:00,
2013-01-29 22:50:00,78.8,71.7,29.82,South,180,5.8,5.8,79,0.00,CLR,,0.00,0.0,WeatherDisplay:10.37,2013-01-29 12:50:00,
2013-01-29 22:55:00,78.6,71.9,29.82,SSE,168,2.0,5.0,80,0.00,CLR,,0.00,0.0,WeatherDisplay:10.37,2013-01-29 12:55:00,
2013-01-29 23:00:00,78.4,71.8,29.83,SSE,158,4.6,4.6,80,0.00,CLR,,0.00,0.0,WeatherDisplay:10.37,2013-01-29 13:00:00,
2013-01-29 23:05:00,78.4,71.8,29.83,SE,135,3.5,3.5,80,0.00,CLR,,0.00,0.0,WeatherDisplay:10.37,2013-01-29 13:05:00,
2013-01-29 23:10:00,78.3,71.2,29.82,SSE,164,1.0,3.0,79,0.00,CLR,,0.00,0.0,WeatherDisplay:10.37,2013-01-29 13:10:00,
2013-01-29 23:15:00,78.1,71.0,29.83,SE,135,3.5,3.5,79,0.00,CLR,,0.00,0.0,WeatherDisplay:10.37,2013-01-29 13:15:00,
2013-01-29 23:20:00,78.1,71.4,29.82,South,180,3.5,3.5,80,0.00,CLR,,0.00,0.0,WeatherDisplay:10.37,2013-01-29 13:20:00,
2013-01-29 23:25:00,78.1,71.0,29.82,SE,135,3.5,3.5,79,0.00,CLR,,0.00,0.0,WeatherDisplay:10.37,2013-01-29 13:25:00,
2013-01-29 23:30:00,77.7,71.8,29.82,SE,135,3.5,3.5,82,0.00,CLR,,0.00,0.0,WeatherDisplay:10.37,2013-01-29 13:30:00,
2013-01-29 23:35:00,77.4,71.4,29.82,South,180,2.3,2.3,82,0.00,CLR,,0.00,0.0,WeatherDisplay:10.37,2013-01-29 13:35:00,
2013-01-29 23:40:00,77.2,71.3,29.82,South,180,3.5,3.5,82,0.00,CLR,,0.00,0.0,WeatherDisplay:10.37,2013-01-29 13:40:00,
2013-01-29 23:45:00,77.0,71.4,29.82,South,180,3.5,3.5,83,0.00,CLR,,0.00,0.0,WeatherDisplay:10.37,2013-01-29 13:45:00,
2013-01-29 23:50:00,77.0,71.4,29.82,SE,135,2.3,2.3,83,0.00,CLR,,0.00,0.0,WeatherDisplay:10.37,2013-01-29 13:50:00,
2013-01-29 23:55:00,76.8,71.6,29.82,SE,135,3.5,3.5,84,0.00,CLR,,0.00,0.0,WeatherDisplay:10.37,2013-01-29 13:55:00,